Time;durP1;ratioP1;P1;durP2;ratioP2;P2;SDS_P1;SDS_P2;PMS_P1;PMS_P2;Temp;Humidity;BMP_temperature;BMP_pressure;BME280_temperature;BME280_humidity;BME280_pressure;Samples;Min_cycle;Max_cycle;Signal;HPM_P1;HPM_P2
2022/11/25 00:01:33;;;;;;;40.55;23.95;;;6.20;99.90;;;;;;5004307;28;20096;-69
2022/11/25 00:03:58;;;;;;;36.15;22.50;;;6.20;99.90;;;;;;5004190;28;20030;-69
2022/11/25 00:06:30;;;;;;;35.85;23.10;;;6.20;99.90;;;;;;5004259;28;20092;-69
2022/11/25 00:08:59;;;;;;;33.95;23.00;;;6.20;99.90;;;;;;5007580;28;20092;-69
2022/11/25 00:11:25;;;;;;;35.83;22.50;;;6.30;99.90;;;;;;5004103;28;20062;-68
2022/11/25 00:13:52;;;;;;;35.95;24.48;;;6.40;99.90;;;;;;5000255;28;20536;-68
2022/11/25 00:16:20;;;;;;;40.88;25.45;;;6.40;99.90;;;;;;5004585;28;20512;-68
2022/11/25 00:18:56;;;;;;;39.72;23.73;;;6.40;99.90;;;;;;5004259;28;20049;-68
2022/11/25 00:21:24;;;;;;;44.28;27.15;;;6.40;99.90;;;;;;5004319;28;20152;-69
2022/11/25 00:23:55;;;;;;;41.92;26.45;;;6.40;99.90;;;;;;5001299;28;20445;-69
2022/11/25 00:26:22;;;;;;;40.75;24.92;;;6.40;99.90;;;;;;5004366;28;20113;-68
2022/11/25 00:28:49;;;;;;;46.50;27.52;;;6.40;99.90;;;;;;4999195;28;20444;-68
2022/11/25 00:31:29;;;;;;;43.30;26.15;;;6.30;99.90;;;;;;5003616;28;20464;-68
2022/11/25 00:33:55;;;;;;;43.47;25.48;;;6.40;99.90;;;;;;5002658;28;20056;-68
2022/11/25 00:36:26;;;;;;;46.50;26.10;;;6.40;99.90;;;;;;5002745;28;20042;-68
2022/11/25 00:38:57;;;;;;;44.13;26.75;;;6.40;99.90;;;;;;5004144;28;20481;-68
2022/11/25 00:46:56;;;;;;;42.88;24.80;;;6.40;99.90;;;;;;5005899;28;20033;-68
2022/11/25 00:49:22;;;;;;;50.53;28.83;;;6.40;99.90;;;;;;5002805;28;20064;-68
2022/11/25 00:51:48;;;;;;;44.25;25.48;;;6.40;99.90;;;;;;5004697;28;20034;-68
2022/11/25 00:54:14;;;;;;;44.08;25.88;;;6.40;99.90;;;;;;5002572;28;20037;-68
2022/11/25 00:56:40;;;;;;;45.75;26.10;;;6.50;99.90;;;;;;5004250;28;20038;-68
2022/11/25 00:59:06;;;;;;;43.22;27.00;;;6.50;99.90;;;;;;5004599;28;20025;-68
2022/11/25 01:01:32;;;;;;;49.95;28.75;;;6.50;99.90;;;;;;5001438;28;20576;-68
2022/11/25 01:03:58;;;;;;;46.13;26.25;;;6.50;99.90;;;;;;5002679;28;20029;-69
2022/11/25 01:06:24;;;;;;;52.58;27.92;;;6.50;99.90;;;;;;5001424;28;20096;-68
2022/11/25 01:08:50;;;;;;;50.08;30.13;;;6.50;99.90;;;;;;5002747;28;20025;-68
2022/11/25 01:11:17;;;;;;;54.20;29.52;;;6.50;99.90;;;;;;5004602;28;20374;-68
2022/11/25 01:13:44;;;;;;;47.20;27.65;;;6.50;99.90;;;;;;5005801;28;20025;-68
2022/11/25 01:16:14;;;;;;;48.60;28.73;;;6.50;99.90;;;;;;5002976;28;20121;-68
2022/11/25 01:18:40;;;;;;;53.20;28.77;;;6.50;99.90;;;;;;5005207;28;20037;-68
2022/11/25 01:21:11;;;;;;;48.72;28.65;;;6.60;99.90;;;;;;5004122;28;20037;-68
2022/11/25 01:23:38;;;;;;;46.47;28.35;;;6.50;99.90;;;;;;5003084;28;20532;-68
2022/11/25 01:26:09;;;;;;;50.53;27.27;;;6.60;99.90;;;;;;5003080;28;20124;-68
2022/11/25 01:28:35;;;;;;;49.53;27.63;;;6.60;99.90;;;;;;5003067;28;20038;-68
2022/11/25 01:31:09;;;;;;;43.47;26.20;;;6.60;99.90;;;;;;5005710;28;20389;-68
2022/11/25 01:33:35;;;;;;;53.78;27.63;;;6.60;99.90;;;;;;5002301;28;20371;-69
2022/11/25 01:36:04;;;;;;;52.78;27.75;;;6.60;99.90;;;;;;5002375;28;20485;-67
2022/11/25 01:38:31;;;;;;;48.30;25.58;;;6.60;99.90;;;;;;5003254;28;20505;-67
2022/11/25 01:40:58;;;;;;;47.55;26.52;;;6.60;99.90;;;;;;5002165;28;20176;-68
2022/11/25 01:43:26;;;;;;;46.65;24.73;;;6.60;99.90;;;;;;5003067;28;20061;-68
2022/11/25 01:45:54;;;;;;;48.33;26.45;;;6.60;99.90;;;;;;5003582;28;20049;-68
2022/11/25 01:48:27;;;;;;;48.08;26.45;;;6.60;99.90;;;;;;5000925;28;20022;-68
2022/11/25 01:50:54;;;;;;;48.53;26.02;;;6.60;99.90;;;;;;5001259;28;20030;-68
2022/11/25 01:53:21;;;;;;;45.50;25.70;;;6.70;99.90;;;;;;5004663;28;20080;-68
2022/11/25 01:55:52;;;;;;;42.88;26.10;;;6.70;99.90;;;;;;5003782;28;20137;-68
2022/11/25 01:58:26;;;;;;;50.25;24.52;;;6.70;99.90;;;;;;5001979;28;20033;-70
2022/11/25 02:00:51;;;;;;;46.90;25.67;;;6.70;99.90;;;;;;5004531;28;20050;-69
2022/11/25 02:03:31;;;;;;;41.08;24.25;;;6.70;99.90;;;;;;5002572;28;20500;-69
2022/11/25 02:06:31;;;;;;;42.30;25.35;;;6.70;99.90;;;;;;5004080;28;20099;-68
2022/11/25 02:09:02;;;;;;;47.22;25.92;;;6.70;99.90;;;;;;5000894;28;20045;-68
2022/11/25 02:11:29;;;;;;;46.88;26.77;;;6.70;99.90;;;;;;5006685;28;20429;-68
2022/11/25 02:13:55;;;;;;;42.92;24.67;;;6.70;99.90;;;;;;5007089;28;20022;-69
2022/11/25 02:16:21;;;;;;;46.55;26.13;;;6.70;99.90;;;;;;5007084;28;20482;-69
2022/11/25 02:18:49;;;;;;;43.63;25.13;;;6.70;99.90;;;;;;5007709;28;20053;-69
2022/11/25 02:21:22;;;;;;;39.75;25.88;;;6.60;99.90;;;;;;5006167;28;20641;-68
2022/11/25 02:24:12;;;;;;;49.25;27.00;;;6.70;99.90;;;;;;5007829;28;20033;-68
2022/11/25 02:26:38;;;;;;;44.88;26.20;;;6.70;99.90;;;;;;5006303;28;20480;-68
2022/11/25 02:29:04;;;;;;;44.03;24.75;;;6.70;99.90;;;;;;5006172;28;20036;-68
2022/11/25 02:31:30;;;;;;;40.13;24.27;;;6.70;99.90;;;;;;5002520;28;20030;-68
2022/11/25 02:33:55;;;;;;;41.80;24.98;;;6.70;99.90;;;;;;5006080;28;20044;-68
2022/11/25 02:36:22;;;;;;;44.40;26.00;;;6.70;99.90;;;;;;5005177;28;20077;-68
2022/11/25 02:38:49;;;;;;;44.38;24.35;;;6.70;99.90;;;;;;5007972;28;20033;-68
2022/11/25 02:41:28;;;;;;;43.83;23.55;;;6.70;99.90;;;;;;5005475;28;20032;-68
2022/11/25 02:43:54;;;;;;;41.55;23.20;;;6.70;99.90;;;;;;5007462;28;20029;-68
2022/11/25 02:46:23;;;;;;;39.13;23.70;;;6.70;99.90;;;;;;5006375;28;20532;-68
2022/11/25 02:48:50;;;;;;;40.58;26.50;;;6.80;99.90;;;;;;5007062;28;20489;-68
2022/11/25 02:51:18;;;;;;;39.72;22.70;;;6.80;99.90;;;;;;5005364;28;20030;-68
2022/11/25 02:53:44;;;;;;;42.22;24.75;;;6.80;99.90;;;;;;5005292;28;20034;-68
2022/11/25 02:56:11;;;;;;;44.22;24.65;;;6.80;99.90;;;;;;5006384;28;20037;-68
2022/11/25 02:58:37;;;;;;;42.55;24.63;;;6.80;99.90;;;;;;5006965;28;20126;-68
2022/11/25 03:01:05;;;;;;;45.05;23.77;;;6.90;99.90;;;;;;5004766;28;20032;-69
2022/11/25 03:03:31;;;;;;;39.85;25.05;;;6.90;99.90;;;;;;5005703;28;20109;-68
2022/11/25 03:05:57;;;;;;;44.40;24.38;;;6.90;99.90;;;;;;5006161;28;20113;-68
2022/11/25 03:08:23;;;;;;;42.05;23.02;;;6.90;99.90;;;;;;5009632;28;20030;-68
2022/11/25 03:10:49;;;;;;;36.53;22.10;;;6.90;99.90;;;;;;5035260;28;20523;-68
2022/11/25 03:13:15;;;;;;;40.10;22.42;;;6.90;99.90;;;;;;5006497;28;20893;-69
2022/11/25 03:15:42;;;;;;;41.40;23.80;;;6.90;99.90;;;;;;5003929;28;20604;-68
2022/11/25 03:18:08;;;;;;;36.78;22.63;;;6.90;99.90;;;;;;5008163;28;20030;-68
2022/11/25 03:20:35;;;;;;;35.63;21.20;;;7.00;99.90;;;;;;5005919;28;20026;-68
2022/11/25 03:23:01;;;;;;;38.92;22.10;;;7.00;99.90;;;;;;5005306;28;20034;-68
2022/11/25 03:25:27;;;;;;;40.10;22.63;;;7.00;99.90;;;;;;5005286;28;20033;-68
2022/11/25 03:27:52;;;;;;;36.22;21.60;;;7.10;99.90;;;;;;5005313;28;20026;-68
2022/11/25 03:30:24;;;;;;;37.10;23.08;;;7.10;99.90;;;;;;5006333;28;20029;-68
2022/11/25 03:32:50;;;;;;;35.65;22.33;;;7.20;99.90;;;;;;5003558;28;20033;-68
2022/11/25 03:35:16;;;;;;;35.05;20.20;;;7.10;99.90;;;;;;5004449;28;20041;-68
2022/11/25 03:37:42;;;;;;;39.60;23.45;;;7.10;99.90;;;;;;5003479;28;20489;-68
2022/11/25 03:40:10;;;;;;;37.15;21.05;;;7.10;99.90;;;;;;5004778;28;20034;-68
2022/11/25 03:42:37;;;;;;;34.40;22.67;;;7.20;99.90;;;;;;5004706;28;20034;-68
2022/11/25 03:45:04;;;;;;;37.05;21.75;;;7.20;99.90;;;;;;5004562;28;20040;-68
2022/11/25 03:47:31;;;;;;;34.55;21.33;;;7.30;99.90;;;;;;5004563;28;20938;-67
2022/11/25 03:49:57;;;;;;;35.38;20.75;;;7.40;99.90;;;;;;5006376;28;20040;-67
2022/11/25 03:52:23;;;;;;;37.70;22.63;;;7.30;99.90;;;;;;5006144;28;20034;-67
2022/11/25 03:54:49;;;;;;;36.92;22.23;;;7.30;99.90;;;;;;5005495;28;20046;-67
2022/11/25 03:57:15;;;;;;;39.50;22.70;;;7.30;99.90;;;;;;5006075;28;20148;-66
2022/11/25 03:59:42;;;;;;;43.90;23.02;;;7.30;99.90;;;;;;5005679;28;20026;-67
2022/11/25 04:02:08;;;;;;;37.67;21.95;;;7.30;99.90;;;;;;5003988;28;20042;-66
2022/11/25 04:04:33;;;;;;;39.20;22.98;;;7.30;99.90;;;;;;5004916;28;20022;-66
2022/11/25 04:06:59;;;;;;;39.92;24.45;;;7.30;99.90;;;;;;5004230;28;20034;-67
2022/11/25 04:09:25;;;;;;;40.15;23.35;;;7.30;99.90;;;;;;5007333;28;20022;-67
2022/11/25 04:14:36;;;;;;;36.60;21.98;;;7.30;99.90;;;;;;5003977;28;20614;-67
2022/11/25 04:17:03;;;;;;;37.08;22.98;;;7.20;99.90;;;;;;4999288;28;20052;-66
2022/11/25 04:19:28;;;;;;;40.13;22.77;;;7.30;99.90;;;;;;5003866;28;20030;-68
2022/11/25 04:21:58;;;;;;;45.22;23.33;;;7.30;99.90;;;;;;5003697;28;20068;-67
2022/11/25 04:24:24;;;;;;;37.47;23.25;;;7.30;99.90;;;;;;5003228;28;20562;-67
2022/11/25 04:26:50;;;;;;;39.72;23.88;;;7.30;99.90;;;;;;5002104;28;20038;-67
2022/11/25 04:29:15;;;;;;;41.08;23.02;;;7.30;99.90;;;;;;5003445;28;20057;-67
2022/11/25 04:31:42;;;;;;;47.30;25.15;;;7.30;99.90;;;;;;5001771;28;20022;-67
2022/11/25 04:34:08;;;;;;;35.55;21.60;;;7.40;99.90;;;;;;4998796;28;20070;-67
2022/11/25 04:36:33;;;;;;;36.53;22.08;;;7.40;99.90;;;;;;5003550;28;20520;-67
2022/11/25 04:38:59;;;;;;;38.15;21.55;;;7.40;99.90;;;;;;5003773;28;20112;-67
2022/11/25 04:41:25;;;;;;;36.15;21.48;;;7.40;99.90;;;;;;5002674;28;20033;-67
2022/11/25 04:43:50;;;;;;;35.78;22.48;;;7.40;99.90;;;;;;5004057;28;20767;-67
2022/11/25 04:46:22;;;;;;;41.75;23.67;;;7.40;99.90;;;;;;5002589;28;20092;-67
2022/11/25 04:48:49;;;;;;;37.85;21.70;;;7.40;99.90;;;;;;5003517;28;20037;-66
2022/11/25 04:51:16;;;;;;;39.85;21.45;;;7.40;99.90;;;;;;5002445;28;20034;-67
2022/11/25 04:53:42;;;;;;;34.08;20.50;;;7.30;99.90;;;;;;5003193;28;20045;-67
2022/11/25 04:56:14;;;;;;;40.38;20.63;;;7.40;99.90;;;;;;5003286;28;20038;-68
2022/11/25 05:01:24;;;;;;;36.17;21.42;;;7.30;99.90;;;;;;5001726;28;20083;-68
2022/11/25 05:03:50;;;;;;;34.05;21.30;;;7.30;99.90;;;;;;5002642;28;20029;-67
2022/11/25 05:06:16;;;;;;;34.97;21.20;;;7.40;99.90;;;;;;5003901;28;20421;-67
2022/11/25 05:08:41;;;;;;;36.88;23.17;;;7.30;99.90;;;;;;5004698;28;20029;-67
2022/11/25 05:11:07;;;;;;;38.47;22.80;;;7.30;99.90;;;;;;5004168;28;20030;-67
2022/11/25 05:13:32;;;;;;;37.33;21.23;;;7.30;99.90;;;;;;5003888;28;20586;-67
2022/11/25 05:15:59;;;;;;;40.58;22.25;;;7.30;99.90;;;;;;5004595;28;20041;-67
2022/11/25 05:18:24;;;;;;;44.15;22.75;;;7.30;99.90;;;;;;5004748;28;20501;-66
2022/11/25 05:20:50;;;;;;;39.45;24.08;;;7.30;99.90;;;;;;5034821;28;20038;-67
2022/11/25 05:23:15;;;;;;;41.40;22.75;;;7.20;99.90;;;;;;5003358;28;20120;-67
2022/11/25 05:25:41;;;;;;;40.22;23.10;;;7.20;99.90;;;;;;5002418;28;20560;-68
2022/11/25 05:28:06;;;;;;;42.70;24.67;;;7.20;99.90;;;;;;5003046;28;20033;-67
2022/11/25 05:30:32;;;;;;;41.15;23.20;;;7.20;99.90;;;;;;5002832;28;20470;-67
2022/11/25 05:32:58;;;;;;;43.55;21.20;;;7.20;99.90;;;;;;5002585;28;20093;-67
2022/11/25 05:35:24;;;;;;;49.58;24.67;;;7.20;99.90;;;;;;5001285;28;20505;-67
2022/11/25 05:37:49;;;;;;;37.45;22.98;;;7.20;99.90;;;;;;5000592;28;20026;-68
2022/11/25 05:40:15;;;;;;;40.25;21.10;;;7.30;99.90;;;;;;5004138;28;20521;-68
2022/11/25 05:42:42;;;;;;;46.00;21.48;;;7.30;99.90;;;;;;5002818;28;20316;-67
2022/11/25 05:45:08;;;;;;;33.80;20.50;;;7.30;99.90;;;;;;5002891;28;20037;-67
2022/11/25 05:47:34;;;;;;;38.13;22.65;;;7.30;99.90;;;;;;5002268;28;20057;-67
2022/11/25 05:49:59;;;;;;;35.80;21.20;;;7.30;99.90;;;;;;4999733;28;20060;-67
2022/11/25 05:52:26;;;;;;;42.63;22.00;;;7.20;99.90;;;;;;5003242;28;20034;-67
2022/11/25 05:54:53;;;;;;;37.80;20.80;;;7.20;99.90;;;;;;5003921;28;20030;-67
2022/11/25 05:57:19;;;;;;;32.05;19.95;;;7.20;99.90;;;;;;5002676;28;20037;-67
2022/11/25 05:59:44;;;;;;;34.45;20.52;;;7.20;99.90;;;;;;5002624;28;20022;-67
2022/11/25 06:02:10;;;;;;;38.97;21.35;;;7.20;99.90;;;;;;5002758;28;20030;-67
2022/11/25 06:04:36;;;;;;;42.13;22.00;;;7.20;99.90;;;;;;5003309;28;20026;-67
2022/11/25 06:07:02;;;;;;;43.33;22.08;;;7.30;99.90;;;;;;5002209;28;20083;-67
2022/11/25 06:09:28;;;;;;;40.50;23.15;;;7.20;99.90;;;;;;5003602;28;20034;-66
2022/11/25 06:11:53;;;;;;;35.38;21.98;;;7.20;99.90;;;;;;5005802;28;20564;-67
2022/11/25 06:14:19;;;;;;;32.90;19.00;;;7.20;99.90;;;;;;5003713;28;20029;-66
2022/11/25 06:16:45;;;;;;;37.17;22.20;;;7.20;99.90;;;;;;4999600;28;20089;-67
2022/11/25 06:19:10;;;;;;;32.33;20.38;;;7.20;99.90;;;;;;5002748;28;20042;-67
2022/11/25 06:21:37;;;;;;;32.13;19.05;;;7.20;99.90;;;;;;5002517;28;20030;-67
2022/11/25 06:24:03;;;;;;;35.55;20.25;;;7.20;99.90;;;;;;5001932;28;20083;-67
2022/11/25 06:26:29;;;;;;;34.53;20.08;;;7.20;99.90;;;;;;5002667;28;20152;-67
2022/11/25 06:28:55;;;;;;;29.10;18.83;;;7.20;99.90;;;;;;5002081;28;20053;-66
2022/11/25 06:31:23;;;;;;;30.83;18.58;;;7.20;99.90;;;;;;5003766;28;20045;-67
2022/11/25 06:33:51;;;;;;;29.40;17.73;;;7.20;99.90;;;;;;5001456;28;20058;-67
2022/11/25 06:36:18;;;;;;;33.20;19.38;;;7.10;99.90;;;;;;5002503;28;20045;-67
2022/11/25 06:38:45;;;;;;;34.83;19.90;;;7.10;99.90;;;;;;5016577;28;20048;-67
2022/11/25 06:41:10;;;;;;;34.70;18.98;;;7.10;99.90;;;;;;5001862;28;20053;-67
2022/11/25 06:43:36;;;;;;;28.13;17.88;;;7.00;99.90;;;;;;5002627;28;20505;-67
2022/11/25 06:46:13;;;;;;;30.48;18.55;;;6.90;99.90;;;;;;5003944;28;20034;-67
2022/11/25 06:48:40;;;;;;;29.98;18.13;;;6.80;99.90;;;;;;5001326;28;20037;-67
2022/11/25 06:51:07;;;;;;;33.53;19.50;;;6.90;99.90;;;;;;5004099;28;20030;-67
2022/11/25 06:53:33;;;;;;;34.08;19.73;;;6.90;99.90;;;;;;5002483;28;20052;-67
2022/11/25 06:56:02;;;;;;;31.73;19.92;;;6.90;99.90;;;;;;5002364;28;20046;-67
2022/11/25 06:58:29;;;;;;;30.85;19.35;;;6.90;99.90;;;;;;5001805;28;20115;-67
2022/11/25 07:01:00;;;;;;;29.63;18.98;;;6.90;99.90;;;;;;5005677;28;20060;-68
2022/11/25 07:03:26;;;;;;;32.70;20.45;;;6.80;99.90;;;;;;5004670;28;20021;-67
2022/11/25 07:05:55;;;;;;;47.95;21.23;;;6.80;99.90;;;;;;5006020;28;20079;-67
2022/11/25 07:08:23;;;;;;;37.13;20.42;;;6.80;99.90;;;;;;5004934;28;20119;-66
2022/11/25 07:10:48;;;;;;;39.38;21.58;;;6.80;99.90;;;;;;5005544;28;20144;-67
2022/11/25 07:13:14;;;;;;;41.15;22.13;;;6.80;99.90;;;;;;5036704;28;20457;-68
2022/11/25 07:15:40;;;;;;;54.35;22.67;;;6.80;99.90;;;;;;5007826;28;20089;-71
2022/11/25 07:18:05;;;;;;;59.95;25.13;;;6.80;99.90;;;;;;5005304;28;20075;-68
2022/11/25 07:20:31;;;;;;;39.30;22.20;;;6.70;99.90;;;;;;5000775;28;20072;-67
2022/11/25 07:22:57;;;;;;;74.20;25.13;;;6.70;99.90;;;;;;5004890;28;20045;-74
2022/11/25 07:25:23;;;;;;;39.40;23.15;;;6.70;99.90;;;;;;5003830;28;20030;-74
2022/11/25 07:27:48;;;;;;;39.38;21.77;;;6.70;99.90;;;;;;5004777;28;20037;-69
2022/11/25 07:30:14;;;;;;;37.80;22.15;;;6.80;99.90;;;;;;5005218;28;22654;-72
2022/11/25 07:32:40;;;;;;;72.85;25.02;;;6.80;99.90;;;;;;5005402;28;20120;-70
2022/11/25 07:35:06;;;;;;;50.65;24.27;;;6.80;99.90;;;;;;5004538;28;20128;-70
2022/11/25 07:37:32;;;;;;;42.53;24.58;;;6.80;99.90;;;;;;5004547;28;20425;-69
2022/11/25 07:39:58;;;;;;;81.25;24.95;;;6.80;99.90;;;;;;5004133;28;20068;-69
2022/11/25 07:42:23;;;;;;;61.38;24.27;;;6.90;99.90;;;;;;5002495;28;20464;-70
2022/11/25 07:44:49;;;;;;;101.22;29.02;;;6.80;99.90;;;;;;5006073;28;20108;-70
2022/11/25 07:47:15;;;;;;;69.38;26.30;;;6.90;99.90;;;;;;5006395;28;20030;-70
2022/11/25 07:49:41;;;;;;;53.45;24.27;;;6.80;99.90;;;;;;5003782;28;20026;-70
2022/11/25 07:52:08;;;;;;;54.30;25.50;;;6.90;99.90;;;;;;5004711;28;20034;-68
2022/11/25 07:54:34;;;;;;;52.65;24.17;;;6.90;99.90;;;;;;5003916;28;20037;-68
2022/11/25 07:56:59;;;;;;;59.95;25.35;;;6.90;99.90;;;;;;5003926;28;20045;-67
2022/11/25 07:59:25;;;;;;;57.55;24.15;;;7.00;99.90;;;;;;5004507;28;20018;-67
2022/11/25 08:01:52;;;;;;;59.22;24.50;;;6.90;99.90;;;;;;5004888;28;20845;-66
2022/11/25 08:04:19;;;;;;;54.47;23.88;;;7.00;99.90;;;;;;5003518;28;20613;-67
2022/11/25 08:06:46;;;;;;;72.88;23.60;;;6.90;99.90;;;;;;5003947;28;20103;-70
2022/11/25 08:09:17;;;;;;;65.55;23.92;;;7.00;99.90;;;;;;5002544;28;20030;-68
2022/11/25 08:11:43;;;;;;;40.67;22.38;;;7.00;99.90;;;;;;5002314;28;20540;-69
2022/11/25 08:14:09;;;;;;;36.08;22.20;;;7.00;99.90;;;;;;5002587;28;20539;-68
2022/11/25 08:16:37;;;;;;;39.00;20.38;;;7.00;99.90;;;;;;5004972;28;20461;-68
2022/11/25 08:19:07;;;;;;;34.78;19.40;;;7.00;99.90;;;;;;5003522;28;20113;-68
2022/11/25 08:21:33;;;;;;;33.20;18.85;;;7.10;99.90;;;;;;5001640;28;20072;-68
2022/11/25 08:24:01;;;;;;;37.63;18.85;;;7.10;99.90;;;;;;5003759;28;20109;-68
2022/11/25 08:26:30;;;;;;;29.58;17.67;;;7.20;99.90;;;;;;5003900;28;20798;-67
2022/11/25 08:28:57;;;;;;;35.38;18.35;;;7.20;99.90;;;;;;5005789;28;20033;-68
2022/11/25 08:31:26;;;;;;;27.92;17.42;;;7.30;99.90;;;;;;5004773;28;20048;-67
2022/11/25 08:33:52;;;;;;;31.90;18.38;;;7.30;99.90;;;;;;5002088;28;20022;-67
2022/11/25 08:36:18;;;;;;;30.13;17.98;;;7.30;99.90;;;;;;5004758;28;20045;-68
2022/11/25 08:38:49;;;;;;;56.70;17.70;;;7.30;99.90;;;;;;5004062;28;20621;-68
2022/11/25 08:41:20;;;;;;;39.10;17.25;;;7.30;99.90;;;;;;5001751;28;20034;-69
2022/11/25 08:43:46;;;;;;;36.42;16.23;;;7.30;99.90;;;;;;5003576;28;20371;-69
2022/11/25 08:46:16;;;;;;;41.67;18.23;;;7.30;99.90;;;;;;5005444;28;20036;-69
2022/11/25 08:48:42;;;;;;;31.90;17.38;;;7.30;99.90;;;;;;5002670;28;20110;-68
2022/11/25 08:51:14;;;;;;;43.05;17.70;;;7.40;99.90;;;;;;5018986;28;20060;-69
2022/11/25 08:53:40;;;;;;;44.00;19.00;;;7.40;99.90;;;;;;5004217;28;20129;-68
2022/11/25 08:56:06;;;;;;;32.63;18.92;;;7.40;99.90;;;;;;5004071;28;20038;-68
2022/11/25 08:58:33;;;;;;;37.88;18.63;;;7.40;99.90;;;;;;5001251;28;20061;-68
2022/11/25 09:01:00;;;;;;;32.78;18.75;;;7.50;99.90;;;;;;4998533;28;20041;-68
2022/11/25 09:03:26;;;;;;;37.42;19.58;;;7.50;99.90;;;;;;5002643;28;20026;-67
2022/11/25 09:05:52;;;;;;;32.22;17.90;;;7.50;99.90;;;;;;5001834;28;20065;-68
2022/11/25 09:08:21;;;;;;;33.90;18.02;;;7.50;99.90;;;;;;5002295;28;20030;-68
2022/11/25 09:10:47;;;;;;;42.53;18.10;;;7.60;99.90;;;;;;4998651;28;20617;-68
2022/11/25 09:13:13;;;;;;;31.10;19.67;;;7.60;99.90;;;;;;5003848;28;20038;-68
2022/11/25 09:15:39;;;;;;;31.90;17.52;;;7.60;99.90;;;;;;5002618;28;20482;-67
2022/11/25 09:18:07;;;;;;;30.48;18.25;;;7.60;99.90;;;;;;5005823;28;20022;-67
2022/11/25 09:20:33;;;;;;;25.33;17.05;;;7.70;99.90;;;;;;5003272;28;20057;-69
2022/11/25 09:23:00;;;;;;;38.75;18.63;;;7.80;99.90;;;;;;5003423;28;20029;-67
2022/11/25 09:25:27;;;;;;;28.48;16.42;;;7.80;99.90;;;;;;5001723;28;20030;-66
2022/11/25 09:27:54;;;;;;;29.05;18.65;;;7.80;99.90;;;;;;4999937;28;20050;-67
2022/11/25 09:30:23;;;;;;;28.55;17.40;;;7.80;99.90;;;;;;5002512;28;20030;-67
2022/11/25 09:32:50;;;;;;;29.33;19.98;;;7.80;99.90;;;;;;5002672;28;20032;-67
2022/11/25 09:35:17;;;;;;;30.05;18.20;;;7.90;99.90;;;;;;5001585;28;20057;-67
2022/11/25 09:37:43;;;;;;;30.67;17.95;;;7.90;99.90;;;;;;5002398;28;20033;-66
2022/11/25 09:40:34;;;;;;;29.77;17.73;;;7.90;99.90;;;;;;5000692;28;20026;-66
2022/11/25 09:49:26;;;;;;;29.13;17.08;;;8.10;99.90;;;;;;5009228;28;20042;-66
2022/11/25 09:52:20;;;;;;;27.90;16.67;;;8.10;99.90;;;;;;5009692;28;20022;-66
2022/11/25 09:54:55;;;;;;;26.95;16.88;;;8.20;99.90;;;;;;5003463;28;20034;-67
2022/11/25 09:57:29;;;;;;;24.88;17.42;;;8.20;99.90;;;;;;4995388;28;20126;-67
2022/11/25 10:00:04;;;;;;;30.42;17.60;;;8.20;99.90;;;;;;5009041;28;20025;-67
2022/11/25 10:02:38;;;;;;;27.85;18.50;;;8.20;99.90;;;;;;5022737;28;20038;-68
2022/11/25 10:05:46;;;;;;;28.60;19.98;;;8.20;99.90;;;;;;5011190;28;20022;-68
2022/11/25 10:08:21;;;;;;;28.92;17.90;;;8.30;99.90;;;;;;5006492;28;20038;-67
2022/11/25 10:10:53;;;;;;;25.67;18.75;;;8.30;99.90;;;;;;5008715;28;20038;-67
2022/11/25 10:13:33;;;;;;;28.42;19.88;;;8.30;99.90;;;;;;4998166;28;20035;-67
2022/11/25 10:16:03;;;;;;;30.75;19.48;;;8.40;99.90;;;;;;5006936;28;20038;-67
2022/11/25 10:18:54;;;;;;;25.33;16.77;;;8.40;99.90;;;;;;5011196;28;20022;-67
2022/11/25 10:21:19;;;;;;;27.92;16.70;;;8.40;99.90;;;;;;5010331;28;20489;-67
2022/11/25 10:23:45;;;;;;;33.20;19.75;;;8.50;99.90;;;;;;5011035;28;20037;-67
2022/11/25 10:26:15;;;;;;;30.15;19.73;;;8.50;99.90;;;;;;5010014;28;20025;-67
2022/11/25 10:28:54;;;;;;;27.38;17.92;;;8.40;99.90;;;;;;5011038;28;20113;-67
2022/11/25 10:31:34;;;;;;;33.83;19.48;;;8.50;99.90;;;;;;5009746;28;20481;-67
2022/11/25 10:34:09;;;;;;;37.40;21.10;;;8.50;99.90;;;;;;5010029;28;20057;-67
2022/11/25 10:36:40;;;;;;;32.20;20.38;;;8.50;99.90;;;;;;5013377;28;20042;-67
2022/11/25 10:39:28;;;;;;;35.72;21.50;;;8.50;99.90;;;;;;5014760;28;20030;-67
2022/11/25 10:42:20;;;;;;;33.67;20.25;;;8.50;99.90;;;;;;5012781;28;20030;-67
2022/11/25 10:44:46;;;;;;;35.53;21.85;;;8.50;99.90;;;;;;5014664;28;20581;-67
2022/11/25 10:47:33;;;;;;;37.65;22.20;;;8.50;99.90;;;;;;5013288;28;20121;-67
2022/11/25 10:50:10;;;;;;;30.73;20.50;;;8.50;99.90;;;;;;5014512;28;20053;-67
2022/11/25 10:53:00;;;;;;;35.60;21.27;;;8.60;99.90;;;;;;5013140;28;20018;-68
2022/11/25 10:55:30;;;;;;;35.97;22.33;;;8.60;99.90;;;;;;5016214;28;20080;-68
2022/11/25 10:57:57;;;;;;;38.10;24.38;;;8.60;99.90;;;;;;5014548;28;20038;-68
2022/11/25 11:00:33;;;;;;;38.13;22.83;;;8.70;99.90;;;;;;5025045;28;20017;-68
2022/11/25 11:03:12;;;;;;;35.47;22.58;;;8.80;99.90;;;;;;5014793;28;20489;-68
2022/11/25 11:05:45;;;;;;;33.78;21.52;;;8.80;99.90;;;;;;5013883;28;20061;-68
2022/11/25 11:08:11;;;;;;;35.33;21.67;;;8.80;99.90;;;;;;5013206;28;20084;-69
2022/11/25 11:10:37;;;;;;;36.17;22.30;;;8.80;99.90;;;;;;5013951;28;20469;-69
2022/11/25 11:13:22;;;;;;;36.47;21.00;;;8.90;99.90;;;;;;5013673;28;20026;-67
2022/11/25 11:15:48;;;;;;;33.13;20.75;;;8.80;99.90;;;;;;5014003;28;20055;-68
2022/11/25 11:18:20;;;;;;;35.08;20.98;;;9.00;99.90;;;;;;5013480;28;20068;-69
2022/11/25 11:20:49;;;;;;;35.00;23.60;;;8.90;99.90;;;;;;5014058;28;20029;-69
2022/11/25 11:23:15;;;;;;;33.13;20.38;;;8.90;99.90;;;;;;5013393;28;20073;-70
2022/11/25 11:25:55;;;;;;;38.95;22.42;;;8.90;99.90;;;;;;5012063;28;20149;-70
2022/11/25 11:28:36;;;;;;;35.75;22.50;;;8.90;99.90;;;;;;5006833;28;20025;-69
2022/11/25 11:31:26;;;;;;;32.80;20.15;;;8.90;99.90;;;;;;5010989;28;20092;-70
2022/11/25 11:34:01;;;;;;;31.80;20.13;;;8.90;99.90;;;;;;5002867;28;20026;-72
2022/11/25 11:36:36;;;;;;;29.98;19.48;;;8.90;99.90;;;;;;5004777;28;20042;-70
2022/11/25 11:39:23;;;;;;;28.40;18.05;;;8.90;99.90;;;;;;5012557;28;20037;-70
2022/11/25 11:42:16;;;;;;;26.77;17.55;;;8.90;99.90;;;;;;5011804;28;20076;-70
2022/11/25 11:45:14;;;;;;;28.23;18.65;;;8.90;99.90;;;;;;5008003;28;20030;-70
2022/11/25 11:47:43;;;;;;;28.05;18.75;;;8.90;99.90;;;;;;5011337;28;20038;-71
2022/11/25 11:50:32;;;;;;;29.73;19.38;;;9.00;99.90;;;;;;5013027;28;20038;-69
2022/11/25 11:53:17;;;;;;;34.55;19.90;;;9.00;99.90;;;;;;5012962;28;20038;-70
2022/11/25 11:56:06;;;;;;;27.43;17.97;;;9.00;99.90;;;;;;5011809;28;20091;-70
2022/11/25 11:58:46;;;;;;;27.48;18.73;;;8.90;99.90;;;;;;5010913;28;20316;-74
2022/11/25 12:01:24;;;;;;;29.77;19.15;;;9.00;99.90;;;;;;5012864;28;20038;-73
2022/11/25 12:04:19;;;;;;;28.27;18.73;;;8.90;99.90;;;;;;5009738;28;20084;-74
2022/11/25 12:06:58;;;;;;;27.50;17.95;;;8.90;99.90;;;;;;5005763;28;20045;-74
2022/11/25 12:09:27;;;;;;;26.88;17.05;;;8.90;99.90;;;;;;5011755;28;20038;-73
2022/11/25 12:12:01;;;;;;;28.45;17.58;;;8.90;99.90;;;;;;5012411;28;20040;-74
2022/11/25 12:14:30;;;;;;;25.63;16.52;;;8.90;99.90;;;;;;5013216;28;20481;-71
2022/11/25 12:17:02;;;;;;;26.38;18.48;;;8.90;99.90;;;;;;5011642;28;20101;-72
2022/11/25 12:19:47;;;;;;;29.45;17.77;;;8.90;99.90;;;;;;5012883;28;20469;-71
2022/11/25 12:22:36;;;;;;;25.30;16.73;;;8.80;99.90;;;;;;5007569;28;20047;-72
2022/11/25 12:25:12;;;;;;;25.83;16.88;;;8.80;99.90;;;;;;5010230;28;20033;-72
2022/11/25 12:27:59;;;;;;;26.15;17.10;;;8.80;99.90;;;;;;5019955;28;20060;-74
2022/11/25 12:30:34;;;;;;;25.70;17.92;;;8.80;99.90;;;;;;5023392;28;20275;-72
2022/11/25 12:33:15;;;;;;;27.58;19.17;;;8.80;99.90;;;;;;5012097;28;20026;-73
2022/11/25 12:36:00;;;;;;;30.55;20.15;;;8.70;99.90;;;;;;5010310;28;20046;-73
2022/11/25 12:38:37;;;;;;;36.92;21.30;;;8.70;99.90;;;;;;4994087;28;20057;-72
2022/11/25 12:41:42;;;;;;;33.42;21.88;;;8.70;99.90;;;;;;5010461;28;20038;-72
2022/11/25 12:44:23;;;;;;;38.35;22.90;;;8.70;99.90;;;;;;5012930;28;20117;-72
2022/11/25 12:46:51;;;;;;;34.63;23.10;;;8.70;99.90;;;;;;5008971;28;20038;-72
2022/11/25 12:49:23;;;;;;;35.20;23.58;;;8.70;99.90;;;;;;5009823;28;20030;-72
2022/11/25 12:51:48;;;;;;;37.78;22.65;;;8.60;99.90;;;;;;5011982;28;20040;-72
2022/11/25 12:55:00;;;;;;;37.75;23.77;;;8.60;99.90;;;;;;5011356;28;20026;-72
2022/11/25 12:57:43;;;;;;;32.92;19.60;;;8.50;99.90;;;;;;5008279;28;20045;-72
2022/11/25 13:00:12;;;;;;;29.73;19.55;;;8.50;99.90;;;;;;5011996;28;20457;-72
2022/11/25 13:02:44;;;;;;;34.70;21.30;;;8.50;99.90;;;;;;5012071;28;20029;-73
2022/11/25 13:05:23;;;;;;;28.08;18.95;;;8.40;99.90;;;;;;5010961;28;20116;-73
2022/11/25 13:08:17;;;;;;;33.88;20.90;;;8.40;99.90;;;;;;5011440;28;20517;-72